Time,TemperatureF,DewpointF,PressureIn,WindDirection,WindDirectionDegrees,WindSpeedMPH,WindSpeedGustMPH,Humidity,HourlyPrecipIn,Conditions,Clouds,dailyrainin,SoftwareType,DateUTC
2013-04-20 08:10:00,41.8,38.8,30.26,West,260,0.0,13.0,89,0.00,,,0.00,Wunderground v.1.15,2013-04-20 13:10:00,
2013-04-20 08:13:00,42.2,38.6,30.27,West,260,1.0,13.0,87,0.00,,,0.00,Wunderground v.1.15,2013-04-20 13:13:00,
2013-04-20 08:15:00,42.5,38.6,30.26,West,260,1.0,13.0,86,0.00,,,0.00,Wunderground v.1.15,2013-04-20 13:15:00,
2013-04-20 08:21:00,43.3,39.1,30.27,WSW,257,1.0,13.0,85,0.00,,,0.00,Wunderground v.1.15,2013-04-20 13:21:00,
2013-04-20 08:22:00,43.5,39.3,30.27,WSW,257,1.0,13.0,85,0.00,,,0.00,Wunderground v.1.15,2013-04-20 13:22:00,
2013-04-20 08:27:00,44.1,39.9,30.27,WSW,258,1.0,13.0,85,0.00,,,0.00,Wunderground v.1.15,2013-04-20 13:27:00,
2013-04-20 08:34:00,44.9,39.7,30.27,West,267,1.0,13.0,82,0.00,,,0.00,Wunderground v.1.15,2013-04-20 13:34:00,
2013-04-20 08:39:00,45.4,40.2,30.27,West,267,1.0,13.0,82,0.00,,,0.00,Wunderground v.1.15,2013-04-20 13:39:00,
2013-04-20 08:44:00,45.9,40.4,30.27,West,260,1.0,13.0,81,0.00,,,0.00,Wunderground v.1.15,2013-04-20 13:44:00,
2013-04-20 08:49:00,46.5,40.3,30.27,West,260,1.0,13.0,79,0.00,,,0.00,Wunderground v.1.15,2013-04-20 13:49:00,
2013-04-20 08:55:00,47.1,40.3,30.28,West,260,1.0,13.0,77,0.00,,,0.00,Wunderground v.1.15,2013-04-20 13:55:00,
2013-04-20 09:02:00,47.9,40.0,30.28,WSW,257,0.0,2.0,74,0.00,,,0.00,Wunderground v.1.15,2013-04-20 14:02:00,
2013-04-20 09:08:00,49.0,38.5,30.28,WSW,257,1.0,2.0,67,0.00,,,0.00,Wunderground v.1.15,2013-04-20 14:08:00,
2013-04-20 09:14:00,50.2,39.7,30.28,WNW,284,1.0,1.0,67,0.00,,,0.00,Wunderground v.1.15,2013-04-20 14:14:00,
2013-04-20 09:19:00,51.4,40.0,30.29,WNW,284,0.0,1.0,65,0.00,,,0.00,Wunderground v.1.15,2013-04-20 14:19:00,
2013-04-20 09:25:00,52.7,40.5,30.29,North,355,0.0,2.0,63,0.00,,,0.00,Wunderground v.1.15,2013-04-20 14:25:00,
2013-04-20 09:31:00,53.1,35.4,30.29,WSW,254,1.0,3.0,51,0.00,,,0.00,Wunderground v.1.15,2013-04-20 14:31:00,
2013-04-20 09:36:00,52.7,38.8,30.29,WNW,290,1.0,2.0,59,0.00,,,0.00,Wunderground v.1.15,2013-04-20 14:36:00,
2013-04-20 09:42:00,53.2,35.5,30.30,WSW,246,1.0,2.0,51,0.00,,,0.00,Wunderground v.1.15,2013-04-20 14:42:00,
2013-04-20 09:48:00,53.3,38.0,30.30,NNE,27,1.0,3.0,56,0.00,,,0.00,Wunderground v.1.15,2013-04-20 14:48:00,
2013-04-20 09:53:00,53.5,36.8,30.30,WSW,240,1.0,3.0,53,0.00,,,0.00,Wunderground v.1.15,2013-04-20 14:53:00,
2013-04-20 09:59:00,54.0,36.3,30.30,ENE,58,1.0,3.0,51,0.00,,,0.00,Wunderground v.1.15,2013-04-20 14:59:00,
2013-04-20 10:04:00,54.6,35.3,30.30,NE,53,2.0,4.0,48,0.00,,,0.00,Wunderground v.1.15,2013-04-20 15:04:00,
2013-04-20 10:11:00,54.4,34.6,30.31,West,261,2.0,2.0,47,0.00,,,0.00,Wunderground v.1.15,2013-04-20 15:11:00,
2013-04-20 10:17:00,53.9,33.6,30.31,WSW,253,1.0,3.0,46,0.00,,,0.00,Wunderground v.1.15,2013-04-20 15:17:00,
2013-04-20 10:22:00,54.3,37.0,30.31,NE,50,1.0,2.0,52,0.00,,,0.00,Wunderground v.1.15,2013-04-20 15:22:00,
2013-04-20 10:28:00,55.4,38.1,30.31,NNE,15,1.0,4.0,52,0.00,,,0.00,Wunderground v.1.15,2013-04-20 15:28:00,
2013-04-20 10:33:00,55.2,33.6,30.31,NE,45,2.0,3.0,44,0.00,,,0.00,Wunderground v.1.15,2013-04-20 15:33:00,
2013-04-20 10:38:00,55.1,34.1,30.31,West,263,1.0,3.0,45,0.00,,,0.00,Wunderground v.1.15,2013-04-20 15:38:00,
2013-04-20 10:45:00,54.9,36.1,30.31,East,95,1.0,2.0,49,0.00,,,0.00,Wunderground v.1.15,2013-04-20 15:45:00,
2013-04-20 10:50:00,54.8,34.4,30.31,WNW,284,1.0,1.0,46,0.00,,,0.00,Wunderground v.1.15,2013-04-20 15:50:00,
2013-04-20 10:55:00,55.2,36.4,30.31,NE,41,2.0,5.0,49,0.00,,,0.00,Wunderground v.1.15,2013-04-20 15:55:00,
2013-04-20 11:00:00,55.1,34.7,30.31,NE,36,3.0,4.0,46,0.00,,,0.00,Wunderground v.1.15,2013-04-20 16:00:00,
2013-04-20 11:06:00,55.6,36.7,30.31,NE,47,2.0,4.0,49,0.00,,,0.00,Wunderground v.1.15,2013-04-20 16:06:00,
2013-04-20 11:11:00,56.4,36.4,30.31,NE,47,1.0,5.0,47,0.00,,,0.00,Wunderground v.1.15,2013-04-20 16:11:00,
2013-04-20 11:17:00,56.6,36.6,30.31,NNE,28,2.0,6.0,47,0.00,,,0.00,Wunderground v.1.15,2013-04-20 16:17:00,
2013-04-20 11:22:00,56.9,35.8,30.31,WSW,255,2.0,6.0,45,0.00,,,0.00,Wunderground v.1.15,2013-04-20 16:22:00,
2013-04-20 11:27:00,56.1,33.3,30.31,SW,221,3.0,6.0,42,0.00,,,0.00,Wunderground v.1.15,2013-04-20 16:27:00,
2013-04-20 11:32:00,55.7,32.9,30.31,NW,306,4.0,4.0,42,0.00,,,0.00,Wunderground v.1.15,2013-04-20 16:32:00,
2013-04-20 11:38:00,56.2,36.8,30.31,NE,51,4.0,8.0,48,0.00,,,0.00,Wunderground v.1.15,2013-04-20 16:38:00,
2013-04-20 11:43:00,56.7,36.7,30.31,North,10,3.0,4.0,47,0.00,,,0.00,Wunderground v.1.15,2013-04-20 16:43:00,
2013-04-20 11:48:00,56.8,35.1,30.31,SSW,206,3.0,6.0,44,0.00,,,0.00,Wunderground v.1.15,2013-04-20 16:48:00,
2013-04-20 11:55:00,56.9,36.9,30.31,SSW,209,3.0,5.0,47,0.00,,,0.00,Wunderground v.1.15,2013-04-20 16:55:00,
2013-04-20 12:00:00,57.0,36.4,30.31,SW,214,4.0,6.0,46,0.00,,,0.00,Wunderground v.1.15,2013-04-20 17:00:00,
2013-04-20 12:06:00,56.7,34.4,30.31,SW,231,4.0,8.0,43,0.00,,,0.00,Wunderground v.1.15,2013-04-20 17:06:00,
2013-04-20 12:12:00,56.3,32.9,30.31,SW,231,4.0,6.0,41,0.00,,,0.00,Wunderground v.1.15,2013-04-20 17:12:00,
2013-04-20 12:18:00,56.9,34.6,30.31,WSW,249,3.0,6.0,43,0.00,,,0.00,Wunderground v.1.15,2013-04-20 17:18:00,
2013-04-20 12:23:00,57.0,32.9,30.30,WSW,242,3.0,4.0,40,0.00,,,0.00,Wunderground v.1.15,2013-04-20 17:23:00,
2013-04-20 12:29:00,57.1,34.8,30.30,SW,224,4.0,6.0,43,0.00,,,0.00,Wunderground v.1.15,2013-04-20 17:29:00,
2013-04-20 12:34:00,57.5,35.2,30.30,NNE,24,4.0,5.0,43,0.00,,,0.00,Wunderground v.1.15,2013-04-20 17:34:00,
2013-04-20 12:39:00,58.2,38.6,30.30,NE,47,3.0,5.0,48,0.00,,,0.00,Wunderground v.1.15,2013-04-20 17:39:00,
2013-04-20 14:37:00,59.9,32.9,30.29,SW,223,3.0,6.0,36,0.00,,,0.00,Wunderground v.1.15,2013-04-20 19:37:00,
2013-04-20 14:43:00,60.3,34.6,30.29,SSE,150,2.0,6.0,38,0.00,,,0.00,Wunderground v.1.15,2013-04-20 19:43:00,
2013-04-20 14:48:00,60.3,36.5,30.28,ENE,61,3.0,6.0,41,0.00,,,0.00,Wunderground v.1.15,2013-04-20 19:48:00,
2013-04-20 14:54:00,60.4,36.6,30.28,NE,37,4.0,6.0,41,0.00,,,0.00,Wunderground v.1.15,2013-04-20 19:54:00,
2013-04-20 15:00:00,60.9,36.4,30.28,NE,42,2.0,2.0,40,0.00,,,0.00,Wunderground v.1.15,2013-04-20 20:00:00,
2013-04-20 15:06:00,60.9,34.4,30.28,NNE,24,3.0,9.0,37,0.00,,,0.00,Wunderground v.1.15,2013-04-20 20:06:00,
2013-04-20 15:11:00,60.7,36.2,30.28,NNE,31,4.0,4.0,40,0.00,,,0.00,Wunderground v.1.15,2013-04-20 20:11:00,
2013-04-20 15:16:00,60.7,34.9,30.28,NNE,21,3.0,4.0,38,0.00,,,0.00,Wunderground v.1.15,2013-04-20 20:16:00,
2013-04-20 15:21:00,60.4,35.9,30.28,NE,42,3.0,4.0,40,0.00,,,0.00,Wunderground v.1.15,2013-04-20 20:21:00,
2013-04-20 15:28:00,60.2,35.1,30.27,NE,34,3.0,4.0,39,0.00,,,0.00,Wunderground v.1.15,2013-04-20 20:28:00,
2013-04-20 15:33:00,60.5,37.3,30.27,NE,46,2.0,6.0,42,0.00,,,0.00,Wunderground v.1.15,2013-04-20 20:33:00,
2013-04-20 15:38:00,60.8,35.0,30.27,NNE,30,2.0,6.0,38,0.00,,,0.00,Wunderground v.1.15,2013-04-20 20:38:00,
2013-04-20 22:10:00,48.6,36.6,30.34,NE,39,3.0,3.0,63,0.00,,,0.00,Wunderground v.1.15,2013-04-21 03:10:00,
2013-04-20 22:15:00,48.3,36.7,30.35,NE,41,3.0,3.0,64,0.00,,,0.00,Wunderground v.1.15,2013-04-21 03:15:00,
2013-04-20 22:20:00,48.1,36.5,30.35,NE,34,3.0,4.0,64,0.00,,,0.00,Wunderground v.1.15,2013-04-21 03:20:00,
2013-04-20 22:26:00,48.0,36.4,30.35,NE,37,3.0,4.0,64,0.00,,,0.00,Wunderground v.1.15,2013-04-21 03:26:00,
2013-04-20 22:31:00,47.8,35.8,30.35,NE,35,3.0,3.0,63,0.00,,,0.00,Wunderground v.1.15,2013-04-21 03:31:00,
2013-04-20 22:37:00,47.9,35.9,30.35,NE,36,3.0,4.0,63,0.00,,,0.00,Wunderground v.1.15,2013-04-21 03:37:00,